createdAt,value
2016-06-15T00:00:40.596Z,0
2016-06-15T00:01:40.616Z,0
2016-06-15T00:02:40.650Z,0
2016-06-15T00:03:40.653Z,0
2016-06-15T00:04:40.859Z,0
2016-06-15T00:05:40.675Z,0
2016-06-15T00:06:40.662Z,0
2016-06-15T00:07:40.696Z,0
2016-06-15T00:08:40.699Z,0
2016-06-15T00:09:40.718Z,0
2016-06-15T00:10:40.550Z,0
2016-06-15T00:11:40.708Z,0
2016-06-15T00:12:40.759Z,0
2016-06-15T00:13:40.746Z,0
2016-06-15T00:14:40.781Z,0
2016-06-15T00:15:40.753Z,0
2016-06-15T00:16:40.756Z,0
2016-06-15T00:17:40.806Z,0
2016-06-15T00:18:40.824Z,0
2016-06-15T00:19:40.890Z,0
2016-06-15T00:20:40.830Z,0
2016-06-15T00:21:40.865Z,0
2016-06-15T00:22:40.836Z,0
2016-06-15T00:23:40.871Z,0
2016-06-15T00:24:40.858Z,0
2016-06-15T00:25:40.893Z,0
2016-06-15T00:26:40.895Z,0
2016-06-15T00:27:40.915Z,0
2016-06-15T00:28:40.901Z,0
2016-06-15T00:29:40.936Z,0
2016-06-15T00:30:40.923Z,0
2016-06-15T00:31:40.958Z,0
2016-06-15T00:32:40.961Z,0
2016-06-15T00:33:40.964Z,0
2016-06-15T00:34:40.826Z,0
2016-06-15T00:35:40.986Z,0
2016-06-15T00:36:40.833Z,0
2016-06-15T00:37:40.992Z,0
2016-06-15T00:38:41.010Z,0
2016-06-15T00:39:41.045Z,0
2016-06-15T00:40:40.877Z,0
2016-06-15T00:41:41.082Z,0
2016-06-15T00:42:41.070Z,0
2016-06-15T00:43:40.932Z,0
2016-06-15T00:44:41.076Z,0
2016-06-15T00:45:41.110Z,0
2016-06-15T00:46:41.098Z,0
2016-06-15T00:47:41.132Z,0
2016-06-15T00:48:41.135Z,0
2016-06-15T00:49:41.154Z,0
2016-06-15T00:50:41.000Z,0
2016-06-15T00:51:41.207Z,0
2016-06-15T00:52:41.178Z,0
2016-06-15T00:53:41.213Z,0
2016-06-15T00:54:41.201Z,0
2016-06-15T00:55:41.204Z,0
2016-06-15T00:56:41.222Z,0
2016-06-15T00:57:41.210Z,0
2016-06-15T00:58:41.275Z,0
2016-06-15T00:59:41.298Z,0
2016-06-15T01:00:41.370Z,0
2016-06-15T01:01:41.409Z,0
2016-06-15T01:02:41.448Z,0
2016-06-15T01:03:41.500Z,0
2016-06-15T01:04:42.078Z,0
2016-06-15T01:05:41.891Z,0
2016-06-15T01:06:41.564Z,0
2016-06-15T01:07:41.564Z,0
2016-06-15T01:08:41.604Z,0
2016-06-15T01:09:41.629Z,0
2016-06-15T01:10:41.636Z,0
2016-06-15T01:11:41.645Z,0
2016-06-15T01:12:41.683Z,0
2016-06-15T01:13:41.642Z,0
2016-06-15T01:14:41.693Z,0
2016-06-15T01:15:41.682Z,0
2016-06-15T01:16:41.578Z,0
2016-06-15T01:17:41.738Z,0
2016-06-15T01:18:41.743Z,0
2016-06-15T01:19:41.590Z,0
2016-06-15T01:20:41.641Z,0
2016-06-15T01:21:41.786Z,0
2016-06-15T01:22:41.774Z,0
2016-06-15T01:23:41.793Z,0
2016-06-15T01:24:41.796Z,0
2016-06-15T01:25:41.799Z,0
2016-06-15T01:26:41.848Z,0
2016-06-15T01:27:41.821Z,0
2016-06-15T01:28:41.854Z,0
2016-06-15T01:29:41.702Z,0
2016-06-15T01:30:41.892Z,0
2016-06-15T01:31:41.880Z,0
2016-06-15T01:32:41.913Z,0
2016-06-15T01:33:41.917Z,0
2016-06-15T01:34:41.935Z,0
2016-06-15T01:35:42.642Z,0
2016-06-15T01:36:41.941Z,0
2016-06-15T01:37:41.945Z,0
2016-06-15T01:38:41.964Z,0
2016-06-15T01:39:41.826Z,0
2016-06-15T01:40:41.970Z,0
2016-06-15T01:41:42.004Z,0
2016-06-15T01:42:41.991Z,0
2016-06-15T01:43:42.025Z,0
2016-06-15T01:44:42.014Z,0
2016-06-15T01:45:42.047Z,0
2016-06-15T01:46:42.034Z,0
2016-06-15T01:47:41.912Z,0
2016-06-15T01:48:42.057Z,0
2016-06-15T01:49:42.076Z,0
2016-06-15T01:50:42.422Z,0
2016-06-15T01:51:42.316Z,0
2016-06-15T01:52:42.100Z,0
2016-06-15T01:53:42.119Z,0
2016-06-15T01:54:42.169Z,0
2016-06-15T01:55:42.000Z,0
2016-06-15T01:56:42.144Z,0
2016-06-15T01:57:42.178Z,0
2016-06-15T01:58:42.165Z,0
2016-06-15T01:59:42.200Z,0
2016-06-15T02:00:42.188Z,0
2016-06-15T02:01:42.222Z,0
2016-06-15T02:02:42.209Z,0
2016-06-15T02:03:42.228Z,0
2016-06-15T02:04:42.215Z,0
2016-06-15T02:05:42.500Z,0
2016-06-15T02:06:42.253Z,0
2016-06-15T02:07:42.287Z,0
2016-06-15T02:08:42.290Z,0
2016-06-15T02:09:42.277Z,0
2016-06-15T02:10:42.280Z,0
2016-06-15T02:11:42.300Z,0
2016-06-15T02:12:42.319Z,0
2016-06-15T02:13:42.322Z,0
2016-06-15T02:14:42.356Z,0
2016-06-15T02:15:42.343Z,0
2016-06-15T02:16:42.362Z,0
2016-06-15T02:17:42.380Z,0
2016-06-15T02:18:42.383Z,0
2016-06-15T02:19:42.402Z,0
2016-06-15T02:20:42.389Z,0
2016-06-15T02:21:42.424Z,0
2016-06-15T02:22:42.428Z,0
2016-06-15T02:23:42.445Z,0
2016-06-15T02:24:42.309Z,0
2016-06-15T02:25:42.451Z,0
2016-06-15T02:26:42.454Z,0
2016-06-15T02:27:42.489Z,0
2016-06-15T02:28:42.352Z,0
2016-06-15T02:29:42.510Z,0
2016-06-15T02:30:42.545Z,0
2016-06-15T02:31:42.532Z,0
2016-06-15T02:32:42.551Z,0
2016-06-15T02:33:42.539Z,0
2016-06-15T02:34:42.573Z,0
2016-06-15T02:35:43.373Z,0
2016-06-15T02:36:42.595Z,0
2016-06-15T02:37:42.582Z,0
2016-06-15T02:38:42.601Z,0
2016-06-15T02:39:42.604Z,0
2016-06-15T02:40:42.607Z,0
2016-06-15T02:41:42.642Z,0
2016-06-15T02:42:42.644Z,0
2016-06-15T02:43:42.648Z,0
2016-06-15T02:44:42.698Z,0
2016-06-15T02:45:42.685Z,0
2016-06-15T02:46:42.719Z,0
2016-06-15T02:47:42.691Z,0
2016-06-15T02:48:42.725Z,0
2016-06-15T02:49:42.697Z,0
2016-06-15T02:50:44.326Z,0
2016-06-15T02:51:42.781Z,0
2016-06-15T02:52:42.770Z,0
2016-06-15T02:53:42.600Z,0
2016-06-15T02:54:42.776Z,0
2016-06-15T02:55:42.622Z,0
2016-06-15T02:56:42.797Z,0
2016-06-15T02:57:42.659Z,0
2016-06-15T02:58:42.803Z,0
2016-06-15T02:59:42.837Z,0
2016-06-15T03:00:42.825Z,0
2016-06-15T03:01:42.844Z,0
2016-06-15T03:02:42.848Z,0
2016-06-15T03:03:42.881Z,0
2016-06-15T03:04:42.884Z,0
2016-06-15T03:05:42.918Z,0
2016-06-15T03:06:42.906Z,0
2016-06-15T03:07:42.925Z,0
2016-06-15T03:08:42.912Z,0
2016-06-15T03:09:42.947Z,0
2016-06-15T03:10:42.949Z,0
2016-06-15T03:11:42.953Z,0
2016-06-15T03:12:42.971Z,0
2016-06-15T03:13:42.990Z,0
2016-06-15T03:14:42.977Z,0
2016-06-15T03:15:43.012Z,0
2016-06-15T03:16:42.999Z,0
2016-06-15T03:17:43.019Z,0
2016-06-15T03:18:43.036Z,0
2016-06-15T03:19:43.055Z,0
2016-06-15T03:20:43.386Z,0
2016-06-15T03:21:43.061Z,0
2016-06-15T03:22:43.095Z,0
2016-06-15T03:23:43.083Z,0
2016-06-15T03:24:43.101Z,0
2016-06-15T03:25:43.121Z,0
2016-06-15T03:26:43.124Z,0
2016-06-15T03:27:43.127Z,0
2016-06-15T03:28:43.130Z,0
2016-06-15T03:29:43.164Z,0
2016-06-15T03:30:43.167Z,0
2016-06-15T03:31:43.186Z,0
2016-06-15T03:32:43.204Z,0
2016-06-15T03:33:43.207Z,0
2016-06-15T03:34:43.211Z,0
2016-06-15T03:35:42.948Z,0
2016-06-15T03:36:43.233Z,0
2016-06-15T03:37:43.236Z,0
2016-06-15T03:38:43.254Z,0
2016-06-15T03:39:43.257Z,0
2016-06-15T03:40:43.292Z,0
2016-06-15T03:41:43.138Z,0
2016-06-15T03:42:43.298Z,0
2016-06-15T03:43:43.285Z,0
2016-06-15T03:44:43.319Z,0
2016-06-15T03:45:43.339Z,0
2016-06-15T03:46:43.325Z,0
2016-06-15T03:47:43.376Z,0
2016-06-15T03:48:43.363Z,0
2016-06-15T03:49:43.382Z,0
2016-06-15T03:50:43.915Z,0
2016-06-15T03:51:43.451Z,0
2016-06-15T03:52:43.406Z,0
2016-06-15T03:53:43.410Z,0
2016-06-15T03:54:43.412Z,0
2016-06-15T03:55:43.447Z,0
2016-06-15T03:56:43.434Z,0
2016-06-15T03:57:43.453Z,0
2016-06-15T03:58:43.473Z,0
2016-06-15T03:59:43.490Z,0
2016-06-15T04:00:43.462Z,0
2016-06-15T04:01:43.513Z,0
2016-06-15T04:02:43.515Z,0
2016-06-15T04:03:43.519Z,0
2016-06-15T04:04:43.537Z,4
2016-06-15T04:05:43.978Z,4
2016-06-15T04:06:43.544Z,4
2016-06-15T04:07:43.578Z,4
2016-06-15T04:08:43.425Z,4
2016-06-15T04:09:43.615Z,4
2016-06-15T04:10:43.571Z,0
2016-06-15T04:11:43.621Z,0
2016-06-15T04:12:43.593Z,0
2016-06-15T04:13:43.627Z,0
2016-06-15T04:14:43.630Z,4
2016-06-15T04:15:43.650Z,4
2016-06-15T04:16:43.667Z,4
2016-06-15T04:17:43.671Z,4
2016-06-15T04:18:43.674Z,4
2016-06-15T04:19:43.677Z,4
2016-06-15T04:20:43.712Z,8
2016-06-15T04:21:43.543Z,4
2016-06-15T04:22:43.733Z,4
2016-06-15T04:23:43.721Z,4
2016-06-15T04:24:43.740Z,4
2016-06-15T04:25:43.742Z,4
2016-06-15T04:26:43.762Z,4
2016-06-15T04:27:43.795Z,4
2016-06-15T04:28:43.783Z,4
2016-06-15T04:29:43.802Z,4
2016-06-15T04:30:43.805Z,4
2016-06-15T04:31:43.824Z,4
2016-06-15T04:32:43.842Z,4
2016-06-15T04:33:43.673Z,4
2016-06-15T04:34:43.848Z,4
2016-06-15T04:35:43.711Z,4
2016-06-15T04:36:43.854Z,4
2016-06-15T04:37:43.701Z,4
2016-06-15T04:38:43.907Z,4
2016-06-15T04:39:43.879Z,4
2016-06-15T04:40:43.930Z,8
2016-06-15T04:41:43.916Z,8
2016-06-15T04:42:43.935Z,8
2016-06-15T04:43:43.938Z,8
2016-06-15T04:44:43.956Z,8
2016-06-15T04:45:43.803Z,8
2016-06-15T04:46:43.979Z,8
2016-06-15T04:47:43.981Z,4
2016-06-15T04:48:43.985Z,4
2016-06-15T04:49:44.019Z,4
2016-06-15T04:50:44.397Z,8
2016-06-15T04:51:43.885Z,8
2016-06-15T04:52:44.060Z,8
2016-06-15T04:53:44.063Z,8
2016-06-15T04:54:44.066Z,8
2016-06-15T04:55:44.053Z,8
2016-06-15T04:56:43.947Z,8
2016-06-15T04:57:44.076Z,8
2016-06-15T04:58:44.093Z,8
2016-06-15T04:59:44.097Z,8
2016-06-15T05:00:44.130Z,8
2016-06-15T05:01:43.963Z,8
2016-06-15T05:02:44.169Z,8
2016-06-15T05:03:44.140Z,12
2016-06-15T05:04:44.175Z,12
2016-06-15T05:05:44.178Z,12
2016-06-15T05:06:44.962Z,12
2016-06-15T05:07:44.184Z,12
2016-06-15T05:08:44.219Z,8
2016-06-15T05:09:44.221Z,8
2016-06-15T05:10:44.241Z,8
2016-06-15T05:11:44.243Z,12
2016-06-15T05:12:44.247Z,8
2016-06-15T05:13:44.265Z,8
2016-06-15T05:14:44.284Z,8
2016-06-15T05:15:44.162Z,8
2016-06-15T05:16:44.321Z,8
2016-06-15T05:17:44.308Z,8
2016-06-15T05:18:44.311Z,12
2016-06-15T05:19:44.347Z,12
2016-06-15T05:20:44.692Z,8
2016-06-15T05:21:44.353Z,12
2016-06-15T05:22:44.355Z,8
2016-06-15T05:23:44.374Z,12
2016-06-15T05:24:44.392Z,12
2016-06-15T05:25:44.380Z,12
2016-06-15T05:26:44.414Z,12
2016-06-15T05:27:44.402Z,12
2016-06-15T05:28:44.264Z,12
2016-06-15T05:29:44.439Z,12
2016-06-15T05:30:44.458Z,12
2016-06-15T05:31:44.445Z,12
2016-06-15T05:32:44.479Z,12
2016-06-15T05:33:44.482Z,12
2016-06-15T05:34:44.345Z,12
2016-06-15T05:35:44.489Z,12
2016-06-15T05:36:45.351Z,12
2016-06-15T05:37:44.526Z,12
2016-06-15T05:38:44.544Z,12
2016-06-15T05:39:44.563Z,12
2016-06-15T05:40:44.550Z,12
2016-06-15T05:41:44.570Z,12
2016-06-15T05:42:44.589Z,12
2016-06-15T05:43:44.419Z,12
2016-06-15T05:44:44.470Z,12
2016-06-15T05:45:44.613Z,12
2016-06-15T05:46:44.633Z,12
2016-06-15T05:47:44.619Z,12
2016-06-15T05:48:44.498Z,12
2016-06-15T05:49:44.485Z,12
2016-06-15T05:50:44.675Z,12
2016-06-15T05:51:45.131Z,16
2016-06-15T05:52:44.666Z,16
2016-06-15T05:53:44.700Z,12
2016-06-15T05:54:44.719Z,16
2016-06-15T05:55:44.737Z,16
2016-06-15T05:56:44.710Z,16
2016-06-15T05:57:44.728Z,16
2016-06-15T05:58:44.731Z,16
2016-06-15T05:59:44.781Z,12
2016-06-15T06:00:44.753Z,12
2016-06-15T06:01:44.787Z,12
2016-06-15T06:02:44.791Z,12
2016-06-15T06:03:44.824Z,12
2016-06-15T06:04:44.797Z,12
2016-06-15T06:05:44.830Z,12
2016-06-15T06:06:45.662Z,12
2016-06-15T06:07:44.853Z,8
2016-06-15T06:08:44.700Z,8
2016-06-15T06:09:44.874Z,12
2016-06-15T06:10:44.878Z,12
2016-06-15T06:11:44.896Z,12
2016-06-15T06:12:44.899Z,12
2016-06-15T06:13:44.903Z,12
2016-06-15T06:14:44.905Z,12
2016-06-15T06:15:44.956Z,12
2016-06-15T06:16:44.927Z,8
2016-06-15T06:17:44.962Z,12
2016-06-15T06:18:44.964Z,12
2016-06-15T06:19:44.984Z,16
2016-06-15T06:20:44.987Z,20
2016-06-15T06:21:45.380Z,20
2016-06-15T06:22:45.008Z,20
2016-06-15T06:23:45.027Z,20
2016-06-15T06:24:45.030Z,20
2016-06-15T06:25:45.033Z,20
2016-06-15T06:26:44.739Z,20
2016-06-15T06:27:45.055Z,16
2016-06-15T06:28:45.089Z,16
2016-06-15T06:29:45.093Z,16
2016-06-15T06:30:45.111Z,16
2016-06-15T06:31:45.083Z,16
2016-06-15T06:32:45.132Z,16
2016-06-15T06:33:45.136Z,16
2016-06-15T06:34:45.124Z,16
2016-06-15T06:35:45.158Z,20
2016-06-15T06:36:44.942Z,20
2016-06-15T06:37:45.163Z,20
2016-06-15T06:38:45.182Z,20
2016-06-15T06:39:45.217Z,20
2016-06-15T06:40:45.220Z,16
2016-06-15T06:41:45.223Z,16
2016-06-15T06:42:45.069Z,16
2016-06-15T06:43:45.244Z,16
2016-06-15T06:44:45.857Z,16
2016-06-15T06:45:45.267Z,16
2016-06-15T06:46:45.285Z,16
2016-06-15T06:47:45.289Z,16
2016-06-15T06:48:45.275Z,16
2016-06-15T06:49:45.310Z,16
2016-06-15T06:50:45.298Z,16
2016-06-15T06:51:45.519Z,16
2016-06-15T06:52:45.382Z,16
2016-06-15T06:53:45.338Z,20
2016-06-15T06:54:45.341Z,20
2016-06-15T06:55:45.360Z,20
2016-06-15T06:56:45.378Z,20
2016-06-15T06:57:45.382Z,20
2016-06-15T06:58:45.415Z,20
2016-06-15T06:59:45.404Z,20
2016-06-15T07:00:45.407Z,16
2016-06-15T07:01:45.441Z,16
2016-06-15T07:02:45.428Z,16
2016-06-15T07:03:45.463Z,16
2016-06-15T07:04:45.450Z,16
2016-06-15T07:05:45.484Z,16
2016-06-15T07:06:45.331Z,20
2016-06-15T07:07:45.506Z,20
2016-06-15T07:08:45.509Z,20
2016-06-15T07:09:45.496Z,20
2016-06-15T07:10:45.546Z,20
2016-06-15T07:11:45.566Z,20
2016-06-15T07:12:45.568Z,20
2016-06-15T07:13:45.556Z,20
2016-06-15T07:14:45.558Z,20
2016-06-15T07:15:45.562Z,20
2016-06-15T07:16:45.596Z,20
2016-06-15T07:17:45.584Z,20
2016-06-15T07:18:45.618Z,20
2016-06-15T07:19:45.605Z,16
2016-06-15T07:20:45.640Z,20
2016-06-15T07:21:45.925Z,24
2016-06-15T07:22:45.661Z,20
2016-06-15T07:23:45.664Z,20
2016-06-15T07:24:45.683Z,16
2016-06-15T07:25:45.687Z,20
2016-06-15T07:26:45.689Z,20
2016-06-15T07:27:45.724Z,24
2016-06-15T07:28:45.743Z,28
2016-06-15T07:29:45.730Z,24
2016-06-15T07:30:45.733Z,28
2016-06-15T07:31:45.752Z,28
2016-06-15T07:32:45.770Z,28
2016-06-15T07:33:45.773Z,24
2016-06-15T07:34:45.808Z,24
2016-06-15T07:35:45.936Z,24
2016-06-15T07:36:45.814Z,24
2016-06-15T07:37:45.660Z,24
2016-06-15T07:38:45.820Z,24
2016-06-15T07:39:45.823Z,24
2016-06-15T07:40:47.248Z,28
2016-06-15T07:41:45.845Z,28
2016-06-15T07:42:45.878Z,28
2016-06-15T07:43:45.867Z,24
2016-06-15T07:44:45.885Z,28
2016-06-15T07:45:45.763Z,28
2016-06-15T07:46:45.923Z,28
2016-06-15T07:47:45.926Z,20
2016-06-15T07:48:45.944Z,32
2016-06-15T07:49:45.979Z,28
2016-06-15T07:50:45.966Z,32
2016-06-15T07:51:46.094Z,32
2016-06-15T07:52:46.239Z,32
2016-06-15T07:53:45.959Z,32
2016-06-15T07:54:45.994Z,32
2016-06-15T07:55:46.013Z,32
2016-06-15T07:56:46.032Z,28
2016-06-15T07:57:46.035Z,32
2016-06-15T07:58:46.037Z,32
2016-06-15T07:59:46.041Z,24
2016-06-15T08:00:45.888Z,24
2016-06-15T08:01:46.062Z,32
2016-06-15T08:02:46.081Z,36
2016-06-15T08:03:46.115Z,36
2016-06-15T08:04:46.087Z,32
2016-06-15T08:05:46.106Z,24
2016-06-15T08:06:46.313Z,24
2016-06-15T08:07:46.143Z,36
2016-06-15T08:08:46.131Z,36
2016-06-15T08:09:46.150Z,36
2016-06-15T08:10:46.214Z,36
2016-06-15T08:11:46.187Z,36
2016-06-15T08:12:46.174Z,24
2016-06-15T08:13:46.209Z,28
2016-06-15T08:14:46.212Z,36
2016-06-15T08:15:47.012Z,32
2016-06-15T08:16:46.234Z,36
2016-06-15T08:17:46.252Z,32
2016-06-15T08:18:46.271Z,36
2016-06-15T08:19:46.258Z,36
2016-06-15T08:20:49.870Z,32
2016-06-15T08:21:47.374Z,36
2016-06-15T08:22:49.548Z,40
2016-06-15T08:23:46.584Z,32
2016-06-15T08:24:46.305Z,28
2016-06-15T08:25:46.324Z,40
2016-06-15T08:26:46.327Z,40
2016-06-15T08:27:46.361Z,44
2016-06-15T08:28:46.020Z,44
2016-06-15T08:29:46.195Z,44
2016-06-15T08:30:46.980Z,36
2016-06-15T08:31:46.404Z,48
2016-06-15T08:32:46.393Z,48
2016-06-15T08:33:46.395Z,48
2016-06-15T08:34:46.414Z,48
2016-06-15T08:35:46.480Z,48
2016-06-15T08:36:46.920Z,52
2016-06-15T08:37:46.455Z,52
2016-06-15T08:38:46.472Z,44
2016-06-15T08:39:46.461Z,40
2016-06-15T08:40:46.714Z,36
2016-06-15T08:41:46.498Z,32
2016-06-15T08:42:46.470Z,32
2016-06-15T08:43:46.520Z,32
2016-06-15T08:44:46.507Z,28
2016-06-15T08:45:47.308Z,20
2016-06-15T08:46:46.529Z,24
2016-06-15T08:47:46.548Z,28
2016-06-15T08:48:46.550Z,24
2016-06-15T08:49:46.569Z,24
2016-06-15T08:50:48.698Z,28
2016-06-15T08:51:46.528Z,28
2016-06-15T08:52:46.719Z,32
2016-06-15T08:53:46.456Z,36
2016-06-15T08:54:46.632Z,36
2016-06-15T08:55:48.166Z,36
2016-06-15T08:56:46.653Z,36
2016-06-15T08:57:46.656Z,24
2016-06-15T08:58:46.675Z,32
2016-06-15T08:59:46.678Z,36
2016-06-15T09:00:47.822Z,36
2016-06-15T09:01:46.716Z,32
2016-06-15T09:02:46.719Z,32
2016-06-15T09:03:46.707Z,32
2016-06-15T09:04:46.725Z,32
2016-06-15T09:05:46.572Z,32
2016-06-15T09:06:46.762Z,32
2016-06-15T09:07:46.750Z,36
2016-06-15T09:08:46.785Z,36
2016-06-15T09:09:46.787Z,40
2016-06-15T09:10:46.790Z,36
2016-06-15T09:11:46.794Z,40
2016-06-15T09:12:46.836Z,36
2016-06-15T09:13:46.804Z,36
2016-06-15T09:14:46.842Z,36
2016-06-15T09:16:10.377Z,36
2016-06-15T09:16:46.912Z,36
2016-06-15T09:17:46.869Z,36
2016-06-15T09:18:46.871Z,36
2016-06-15T09:19:46.889Z,36
2016-06-15T09:20:46.893Z,40
2016-06-15T09:21:46.893Z,36
2016-06-15T09:22:47.399Z,36
2016-06-15T09:23:46.946Z,36
2016-06-15T09:24:46.933Z,36
2016-06-15T09:25:46.983Z,40
2016-06-15T09:26:47.173Z,24
2016-06-15T09:27:46.974Z,24
2016-06-15T09:28:46.961Z,32
2016-06-15T09:29:46.990Z,40
2016-06-15T09:30:46.836Z,40
2016-06-15T09:31:47.011Z,40
2016-06-15T09:32:47.015Z,36
2016-06-15T09:33:47.018Z,28
2016-06-15T09:34:47.052Z,40
2016-06-15T09:35:47.040Z,32
2016-06-15T09:36:47.809Z,32
2016-06-15T09:37:47.420Z,28
2016-06-15T09:38:47.095Z,28
2016-06-15T09:39:47.113Z,28
2016-06-15T09:40:47.117Z,32
2016-06-15T09:41:47.136Z,36
2016-06-15T09:42:47.108Z,40
2016-06-15T09:43:47.142Z,44
2016-06-15T09:44:47.129Z,40
2016-06-15T09:45:47.149Z,36
2016-06-15T09:46:47.167Z,36
2016-06-15T09:47:47.185Z,32
2016-06-15T09:48:47.188Z,28
2016-06-15T09:49:47.067Z,24
2016-06-15T09:50:47.085Z,24
2016-06-15T09:51:47.636Z,24
2016-06-15T09:52:47.654Z,20
2016-06-15T09:53:47.298Z,24
2016-06-15T09:54:47.238Z,24
2016-06-15T09:55:47.273Z,28
2016-06-15T09:56:47.260Z,24
2016-06-15T09:57:47.263Z,28
2016-06-15T09:58:47.266Z,32
2016-06-15T09:59:47.333Z,32
2016-06-15T10:00:47.303Z,36
2016-06-15T10:01:47.181Z,40
2016-06-15T10:02:47.325Z,48
2016-06-15T10:03:47.187Z,52
2016-06-15T10:04:47.350Z,48
2016-06-15T10:05:47.440Z,40
2016-06-15T10:06:47.452Z,40
2016-06-15T10:07:47.605Z,44
2016-06-15T10:08:47.569Z,40
2016-06-15T10:09:47.616Z,36
2016-06-15T10:10:47.462Z,36
2016-06-15T10:11:47.665Z,40
2016-06-15T10:12:47.668Z,36
2016-06-15T10:13:47.576Z,48
2016-06-15T10:14:47.714Z,32
2016-06-15T10:15:47.753Z,44
2016-06-15T10:16:47.746Z,44
2016-06-15T10:17:56.622Z,40
2016-06-15T10:18:47.794Z,28
2016-06-15T10:19:47.817Z,32
2016-06-15T10:20:47.806Z,40
2016-06-15T10:21:47.827Z,44
2016-06-15T10:22:47.957Z,36
2016-06-15T10:23:47.852Z,36
2016-06-15T10:24:47.872Z,52
2016-06-15T10:25:47.876Z,52
2016-06-15T10:26:47.880Z,48
2016-06-15T10:27:47.913Z,44
2016-06-15T10:28:47.902Z,40
2016-06-15T10:29:47.890Z,40
2016-06-15T10:30:47.768Z,36
2016-06-15T10:31:47.958Z,32
2016-06-15T10:32:47.931Z,32
2016-06-15T10:33:47.965Z,32
2016-06-15T10:34:47.813Z,28
2016-06-15T10:35:52.832Z,32
2016-06-15T10:36:55.808Z,32
2016-06-15T10:38:09.106Z,32
2016-06-15T10:39:02.766Z,32
2016-06-15T10:40:27.082Z,28
2016-06-15T10:41:30.726Z,24
2016-06-15T10:42:17.994Z,24
2016-06-15T10:42:58.838Z,24
2016-06-15T10:43:52.654Z,28
2016-06-15T10:44:52.641Z,28
2016-06-15T10:46:22.132Z,32
2016-06-15T10:47:38.088Z,36
2016-06-15T10:49:06.309Z,40
2016-06-15T10:50:06.235Z,40
2016-06-15T10:50:52.894Z,40
2016-06-15T10:51:45.554Z,40
2016-06-15T10:53:01.338Z,40
2016-06-15T10:54:21.844Z,40
2016-06-15T10:55:52.003Z,28
2016-06-15T10:56:04.472Z,32
2016-06-15T10:57:04.491Z,28
2016-06-15T10:58:04.494Z,28
2016-06-15T10:59:04.497Z,24
2016-06-15T11:00:04.516Z,28
2016-06-15T11:01:04.504Z,24
2016-06-15T11:02:04.382Z,24
2016-06-15T11:03:04.525Z,20
2016-06-15T11:04:04.559Z,20
2016-06-15T11:05:04.562Z,24
2016-06-15T11:06:04.269Z,20
2016-06-15T11:07:05.366Z,24
2016-06-15T11:08:05.040Z,20
2016-06-15T11:09:04.449Z,24
2016-06-15T11:10:04.641Z,28
2016-06-15T11:11:04.643Z,28
2016-06-15T11:12:04.475Z,32
2016-06-15T11:13:04.634Z,36
2016-06-15T11:14:04.637Z,48
2016-06-15T11:15:04.671Z,48
2016-06-15T11:16:04.503Z,36
2016-06-15T11:17:04.678Z,32
2016-06-15T11:18:04.712Z,32
2016-06-15T11:19:04.700Z,32
2016-06-15T11:20:04.733Z,32
2016-06-15T11:21:04.737Z,28
2016-06-15T11:22:04.772Z,32
2016-06-15T11:23:05.867Z,28
2016-06-15T11:24:04.777Z,28
2016-06-15T11:25:04.765Z,28
2016-06-15T11:26:04.798Z,24
2016-06-15T11:27:04.818Z,24
2016-06-15T11:28:04.790Z,24
2016-06-15T11:29:04.807Z,24
2016-06-15T11:30:04.827Z,24
2016-06-15T11:31:04.861Z,24
2016-06-15T11:32:04.864Z,28
2016-06-15T11:33:04.883Z,32
2016-06-15T11:34:04.855Z,36
2016-06-15T11:35:04.904Z,36
2016-06-15T11:36:04.893Z,52
2016-06-15T11:37:04.771Z,48
2016-06-15T11:38:05.413Z,52
2016-06-15T11:39:04.948Z,52
2016-06-15T11:40:04.935Z,52
2016-06-15T11:41:04.954Z,56
2016-06-15T11:42:04.958Z,64
2016-06-15T11:43:04.992Z,60
2016-06-15T11:44:04.995Z,56
2016-06-15T11:45:05.014Z,56
2016-06-15T11:46:05.001Z,56
2016-06-15T11:47:04.864Z,52
2016-06-15T11:48:05.038Z,48
2016-06-15T11:49:05.057Z,48
2016-06-15T11:50:05.045Z,32
2016-06-15T11:51:05.078Z,36
2016-06-15T11:52:04.942Z,60
2016-06-15T11:53:05.929Z,64
2016-06-15T11:54:05.104Z,40
2016-06-15T11:55:05.123Z,36
2016-06-15T11:56:05.140Z,36
2016-06-15T11:57:05.144Z,40
2016-06-15T11:58:05.163Z,48
2016-06-15T11:59:05.166Z,40
2016-06-15T12:00:05.170Z,48
2016-06-15T12:01:05.172Z,48
2016-06-15T12:02:05.020Z,60
2016-06-15T12:03:05.226Z,48
2016-06-15T12:04:05.041Z,68
2016-06-15T12:05:05.232Z,56
2016-06-15T12:06:05.234Z,52
2016-06-15T12:07:05.269Z,44
2016-06-15T12:08:05.271Z,44
2016-06-15T12:09:05.275Z,44
2016-06-15T12:10:05.309Z,24
2016-06-15T12:11:05.297Z,24
2016-06-15T12:12:05.175Z,24
2016-06-15T12:13:05.350Z,24
2016-06-15T12:14:05.353Z,28
2016-06-15T12:15:05.341Z,28
2016-06-15T12:16:05.360Z,32
2016-06-15T12:17:05.362Z,36
2016-06-15T12:18:05.365Z,44
2016-06-15T12:19:05.244Z,32
2016-06-15T12:20:05.403Z,32
2016-06-15T12:21:05.453Z,32
2016-06-15T12:22:05.424Z,32
2016-06-15T12:23:06.098Z,36
2016-06-15T12:24:05.430Z,32
2016-06-15T12:25:05.465Z,36
2016-06-15T12:26:05.468Z,32
2016-06-15T12:27:05.486Z,32
2016-06-15T12:28:05.474Z,32
2016-06-15T12:29:05.508Z,28
2016-06-15T12:30:05.512Z,32
2016-06-15T12:31:05.531Z,32
2016-06-15T12:32:05.565Z,32
2016-06-15T12:33:05.567Z,36
2016-06-15T12:34:05.554Z,32
2016-06-15T12:35:05.574Z,32
2016-06-15T12:36:05.421Z,36
2016-06-15T12:37:05.860Z,32
2016-06-15T12:38:05.661Z,32
2016-06-15T12:39:05.680Z,36
2016-06-15T12:40:05.620Z,36
2016-06-15T12:41:05.640Z,36
2016-06-15T12:42:05.626Z,48
2016-06-15T12:43:05.660Z,40
2016-06-15T12:44:05.663Z,36
2016-06-15T12:45:05.683Z,36
2016-06-15T12:46:05.686Z,32
2016-06-15T12:47:05.689Z,36
2016-06-15T12:48:05.723Z,36
2016-06-15T12:49:05.710Z,40
2016-06-15T12:50:05.729Z,40
2016-06-15T12:51:05.732Z,44
2016-06-15T12:52:05.751Z,48
2016-06-15T12:53:07.301Z,44
2016-06-15T12:54:05.788Z,44
2016-06-15T12:55:05.776Z,48
2016-06-15T12:56:05.669Z,52
2016-06-15T12:57:05.828Z,52
2016-06-15T12:58:05.831Z,48
2016-06-15T12:59:05.820Z,60
2016-06-15T13:00:05.854Z,56
2016-06-15T13:01:05.857Z,52
2016-06-15T13:02:05.860Z,48
2016-06-15T13:03:05.863Z,48
2016-06-15T13:04:05.882Z,44
2016-06-15T13:05:05.744Z,48
2016-06-15T13:06:05.919Z,40
2016-06-15T13:07:05.906Z,36
2016-06-15T13:08:06.440Z,24
2016-06-15T13:09:05.928Z,16
2016-06-15T13:10:05.963Z,32
2016-06-15T13:11:05.809Z,36
2016-06-15T13:12:05.671Z,32
2016-06-15T13:13:05.972Z,44
2016-06-15T13:14:06.037Z,48
2016-06-15T13:15:05.994Z,52
2016-06-15T13:16:05.997Z,56
2016-06-15T13:17:06.015Z,60
2016-06-15T13:18:06.050Z,56
2016-06-15T13:19:06.068Z,56
2016-06-15T13:20:05.915Z,48
2016-06-15T13:21:06.075Z,36
2016-06-15T13:22:05.905Z,36
2016-06-15T13:23:06.111Z,36
2016-06-15T13:24:06.115Z,32
2016-06-15T13:25:06.117Z,28
2016-06-15T13:26:06.137Z,28
2016-06-15T13:27:06.140Z,24
2016-06-15T13:28:06.143Z,20
2016-06-15T13:29:06.145Z,16
2016-06-15T13:30:06.180Z,16
2016-06-15T13:31:06.168Z,16
2016-06-15T13:32:06.171Z,16
2016-06-15T13:33:06.221Z,20
2016-06-15T13:34:06.239Z,16
2016-06-15T13:35:06.228Z,20
2016-06-15T13:36:06.230Z,28
2016-06-15T13:37:06.093Z,48
2016-06-15T13:38:06.174Z,48
2016-06-15T13:39:06.255Z,48
2016-06-15T13:40:06.132Z,48
2016-06-15T13:41:06.277Z,48
2016-06-15T13:42:06.311Z,48
2016-06-15T13:43:06.314Z,40
2016-06-15T13:44:06.333Z,24
2016-06-15T13:45:06.321Z,24
2016-06-15T13:46:06.370Z,24
2016-06-15T13:47:06.342Z,28
2016-06-15T13:48:06.361Z,28
2016-06-15T13:49:06.239Z,32
2016-06-15T13:50:06.086Z,36
2016-06-15T13:51:06.230Z,32
2016-06-15T13:52:06.435Z,32
2016-06-15T13:53:06.579Z,36
2016-06-15T13:54:06.473Z,48
2016-06-15T13:55:06.445Z,48
2016-06-15T13:56:06.463Z,32
2016-06-15T13:57:06.451Z,44
2016-06-15T13:58:06.501Z,32
2016-06-15T13:59:06.488Z,24
2016-06-15T14:00:06.522Z,24
2016-06-15T14:01:06.494Z,36
2016-06-15T14:02:06.544Z,28
2016-06-15T14:03:06.517Z,40
2016-06-15T14:04:06.566Z,44
2016-06-15T14:05:06.554Z,28
2016-06-15T14:06:06.573Z,28
2016-06-15T14:07:06.591Z,24
2016-06-15T14:08:06.594Z,28
2016-06-15T14:09:06.582Z,40
2016-06-15T14:10:06.600Z,48
2016-06-15T14:11:06.463Z,48
2016-06-15T14:12:06.622Z,48
2016-06-15T14:13:06.657Z,32
2016-06-15T14:14:06.643Z,36
2016-06-15T14:15:06.663Z,40
2016-06-15T14:16:06.666Z,44
2016-06-15T14:17:06.685Z,48
2016-06-15T14:18:06.703Z,48
2016-06-15T14:19:06.566Z,44
2016-06-15T14:20:06.803Z,48
2016-06-15T14:21:06.744Z,44
2016-06-15T14:22:06.762Z,44
2016-06-15T14:23:07.078Z,44
2016-06-15T14:24:06.799Z,44
2016-06-15T14:25:06.802Z,44
2016-06-15T14:26:06.775Z,36
2016-06-15T14:27:06.855Z,44
2016-06-15T14:28:06.796Z,40